sensor_id;sensor_type;location;lat;lon;timestamp;P1;durP1;ratioP1;P2;durP2;ratioP2
15385;SDS011;7791;47.246;9.648;2022-07-10T00:01:18;4.30;;;1.50;;
15385;SDS011;7791;47.246;9.648;2022-07-10T00:03:44;5.03;;;1.50;;
15385;SDS011;7791;47.246;9.648;2022-07-10T00:06:11;4.70;;;1.33;;
15385;SDS011;7791;47.246;9.648;2022-07-10T00:08:49;2.27;;;1.20;;
15385;SDS011;7791;47.246;9.648;2022-07-10T00:11:14;1.97;;;1.30;;
15385;SDS011;7791;47.246;9.648;2022-07-10T00:13:40;2.57;;;1.10;;
15385;SDS011;7791;47.246;9.648;2022-07-10T00:16:06;2.17;;;1.43;;
15385;SDS011;7791;47.246;9.648;2022-07-10T00:18:32;1.43;;;1.10;;
15385;SDS011;7791;47.246;9.648;2022-07-10T00:20:57;1.33;;;1.17;;
15385;SDS011;7791;47.246;9.648;2022-07-10T00:23:25;2.37;;;1.50;;
15385;SDS011;7791;47.246;9.648;2022-07-10T00:25:50;1.80;;;1.23;;
15385;SDS011;7791;47.246;9.648;2022-07-10T00:28:16;1.77;;;1.20;;
15385;SDS011;7791;47.246;9.648;2022-07-10T00:30:42;1.87;;;1.43;;
15385;SDS011;7791;47.246;9.648;2022-07-10T00:33:07;2.40;;;1.50;;
15385;SDS011;7791;47.246;9.648;2022-07-10T00:35:33;2.07;;;1.50;;
15385;SDS011;7791;47.246;9.648;2022-07-10T00:37:59;2.13;;;1.60;;
15385;SDS011;7791;47.246;9.648;2022-07-10T00:40:26;4.63;;;1.77;;
15385;SDS011;7791;47.246;9.648;2022-07-10T00:42:52;2.37;;;1.47;;
15385;SDS011;7791;47.246;9.648;2022-07-10T00:45:17;2.10;;;1.30;;
15385;SDS011;7791;47.246;9.648;2022-07-10T00:47:43;4.87;;;1.30;;
15385;SDS011;7791;47.246;9.648;2022-07-10T00:50:09;2.40;;;1.23;;
15385;SDS011;7791;47.246;9.648;2022-07-10T00:52:35;4.03;;;2.10;;
15385;SDS011;7791;47.246;9.648;2022-07-10T00:55:01;4.00;;;1.93;;
15385;SDS011;7791;47.246;9.648;2022-07-10T00:57:28;3.20;;;2.00;;
15385;SDS011;7791;47.246;9.648;2022-07-10T00:59:54;55.03;;;3.87;;
15385;SDS011;7791;47.246;9.648;2022-07-10T01:02:20;8.20;;;2.77;;
15385;SDS011;7791;47.246;9.648;2022-07-10T01:04:46;6.03;;;3.20;;
15385;SDS011;7791;47.246;9.648;2022-07-10T01:07:11;9.97;;;2.50;;
15385;SDS011;7791;47.246;9.648;2022-07-10T01:09:37;4.87;;;1.90;;
15385;SDS011;7791;47.246;9.648;2022-07-10T01:12:03;2.80;;;1.80;;
15385;SDS011;7791;47.246;9.648;2022-07-10T01:14:33;2.17;;;1.60;;
15385;SDS011;7791;47.246;9.648;2022-07-10T01:16:59;3.37;;;1.87;;
15385;SDS011;7791;47.246;9.648;2022-07-10T01:19:25;2.87;;;1.53;;
15385;SDS011;7791;47.246;9.648;2022-07-10T01:21:52;4.23;;;1.70;;
15385;SDS011;7791;47.246;9.648;2022-07-10T01:24:18;3.97;;;1.90;;
15385;SDS011;7791;47.246;9.648;2022-07-10T01:26:44;3.93;;;1.80;;
15385;SDS011;7791;47.246;9.648;2022-07-10T01:29:10;3.93;;;1.80;;
15385;SDS011;7791;47.246;9.648;2022-07-10T01:31:36;3.40;;;1.80;;
15385;SDS011;7791;47.246;9.648;2022-07-10T01:34:04;3.83;;;2.40;;
15385;SDS011;7791;47.246;9.648;2022-07-10T01:36:31;4.27;;;2.07;;
15385;SDS011;7791;47.246;9.648;2022-07-10T01:38:59;4.57;;;2.00;;
15385;SDS011;7791;47.246;9.648;2022-07-10T01:41:25;5.70;;;1.80;;
15385;SDS011;7791;47.246;9.648;2022-07-10T01:43:51;5.70;;;1.73;;
15385;SDS011;7791;47.246;9.648;2022-07-10T01:46:18;4.10;;;2.00;;
15385;SDS011;7791;47.246;9.648;2022-07-10T01:48:44;3.23;;;1.77;;
15385;SDS011;7791;47.246;9.648;2022-07-10T01:51:10;4.33;;;1.73;;
15385;SDS011;7791;47.246;9.648;2022-07-10T01:53:36;2.37;;;1.80;;
15385;SDS011;7791;47.246;9.648;2022-07-10T01:56:04;2.37;;;2.00;;
15385;SDS011;7791;47.246;9.648;2022-07-10T01:58:32;2.10;;;1.90;;
15385;SDS011;7791;47.246;9.648;2022-07-10T02:00:58;3.90;;;1.80;;
15385;SDS011;7791;47.246;9.648;2022-07-10T02:03:24;4.13;;;2.20;;
15385;SDS011;7791;47.246;9.648;2022-07-10T02:05:50;2.73;;;2.00;;
15385;SDS011;7791;47.246;9.648;2022-07-10T02:08:21;3.73;;;2.60;;
15385;SDS011;7791;47.246;9.648;2022-07-10T02:10:47;3.83;;;3.20;;
15385;SDS011;7791;47.246;9.648;2022-07-10T02:13:14;4.53;;;2.70;;
15385;SDS011;7791;47.246;9.648;2022-07-10T02:15:40;5.57;;;2.60;;
15385;SDS011;7791;47.246;9.648;2022-07-10T02:18:06;4.97;;;2.60;;
15385;SDS011;7791;47.246;9.648;2022-07-10T02:20:31;3.97;;;2.40;;
15385;SDS011;7791;47.246;9.648;2022-07-10T02:22:57;3.93;;;2.63;;
15385;SDS011;7791;47.246;9.648;2022-07-10T02:25:23;6.63;;;3.03;;
15385;SDS011;7791;47.246;9.648;2022-07-10T02:27:49;3.20;;;2.70;;
15385;SDS011;7791;47.246;9.648;2022-07-10T02:30:16;4.57;;;2.30;;
15385;SDS011;7791;47.246;9.648;2022-07-10T02:32:41;3.87;;;2.33;;
15385;SDS011;7791;47.246;9.648;2022-07-10T02:35:08;5.80;;;2.20;;
15385;SDS011;7791;47.246;9.648;2022-07-10T02:37:34;2.47;;;1.80;;
15385;SDS011;7791;47.246;9.648;2022-07-10T02:39:59;2.60;;;2.17;;
15385;SDS011;7791;47.246;9.648;2022-07-10T02:42:25;3.50;;;2.33;;
15385;SDS011;7791;47.246;9.648;2022-07-10T02:44:51;3.10;;;2.10;;
15385;SDS011;7791;47.246;9.648;2022-07-10T02:47:18;2.37;;;1.90;;
15385;SDS011;7791;47.246;9.648;2022-07-10T02:49:44;3.73;;;2.30;;
15385;SDS011;7791;47.246;9.648;2022-07-10T02:52:09;3.27;;;2.10;;
15385;SDS011;7791;47.246;9.648;2022-07-10T02:54:37;3.30;;;2.27;;
15385;SDS011;7791;47.246;9.648;2022-07-10T02:57:03;5.03;;;2.90;;
15385;SDS011;7791;47.246;9.648;2022-07-10T02:59:29;3.93;;;2.43;;
15385;SDS011;7791;47.246;9.648;2022-07-10T03:01:55;3.57;;;2.30;;
15385;SDS011;7791;47.246;9.648;2022-07-10T03:04:22;3.67;;;2.50;;
15385;SDS011;7791;47.246;9.648;2022-07-10T03:06:48;3.60;;;2.23;;
15385;SDS011;7791;47.246;9.648;2022-07-10T03:09:14;3.83;;;3.40;;
15385;SDS011;7791;47.246;9.648;2022-07-10T03:11:40;3.70;;;2.50;;
15385;SDS011;7791;47.246;9.648;2022-07-10T03:14:05;3.30;;;2.60;;
15385;SDS011;7791;47.246;9.648;2022-07-10T03:16:31;4.20;;;2.20;;
15385;SDS011;7791;47.246;9.648;2022-07-10T03:18:57;4.50;;;2.60;;
15385;SDS011;7791;47.246;9.648;2022-07-10T03:21:24;4.77;;;2.63;;
15385;SDS011;7791;47.246;9.648;2022-07-10T03:23:50;3.50;;;2.50;;
15385;SDS011;7791;47.246;9.648;2022-07-10T03:26:16;7.50;;;2.73;;
15385;SDS011;7791;47.246;9.648;2022-07-10T03:28:42;5.83;;;2.50;;
15385;SDS011;7791;47.246;9.648;2022-07-10T03:31:07;5.87;;;2.60;;
15385;SDS011;7791;47.246;9.648;2022-07-10T03:33:33;6.13;;;2.70;;
15385;SDS011;7791;47.246;9.648;2022-07-10T03:35:59;8.40;;;2.93;;
15385;SDS011;7791;47.246;9.648;2022-07-10T03:38:26;5.60;;;2.70;;
15385;SDS011;7791;47.246;9.648;2022-07-10T03:40:52;3.20;;;1.60;;
15385;SDS011;7791;47.246;9.648;2022-07-10T03:43:18;4.93;;;1.90;;
15385;SDS011;7791;47.246;9.648;2022-07-10T03:45:44;1999.90;;;999.90;;
15385;SDS011;7791;47.246;9.648;2022-07-10T03:48:09;1999.90;;;999.90;;
15385;SDS011;7791;47.246;9.648;2022-07-10T03:50:35;1999.90;;;999.90;;
15385;SDS011;7791;47.246;9.648;2022-07-10T03:53:01;1999.90;;;999.90;;
15385;SDS011;7791;47.246;9.648;2022-07-10T03:55:31;1999.90;;;999.90;;
15385;SDS011;7791;47.246;9.648;2022-07-10T03:57:57;1999.90;;;999.90;;
15385;SDS011;7791;47.246;9.648;2022-07-10T04:00:23;1999.90;;;999.90;;
15385;SDS011;7791;47.246;9.648;2022-07-10T04:02:54;1999.90;;;999.90;;
15385;SDS011;7791;47.246;9.648;2022-07-10T04:05:20;1999.90;;;999.90;;
15385;SDS011;7791;47.246;9.648;2022-07-10T04:07:46;1999.90;;;999.90;;
15385;SDS011;7791;47.246;9.648;2022-07-10T04:10:17;1999.90;;;999.90;;
15385;SDS011;7791;47.246;9.648;2022-07-10T04:12:44;1999.90;;;999.90;;
15385;SDS011;7791;47.246;9.648;2022-07-10T04:15:10;1999.90;;;999.90;;
15385;SDS011;7791;47.246;9.648;2022-07-10T04:17:36;1999.90;;;999.90;;
15385;SDS011;7791;47.246;9.648;2022-07-10T04:20:02;1999.90;;;999.90;;
15385;SDS011;7791;47.246;9.648;2022-07-10T04:22:29;1999.90;;;999.90;;
15385;SDS011;7791;47.246;9.648;2022-07-10T04:24:54;1999.90;;;999.90;;
15385;SDS011;7791;47.246;9.648;2022-07-10T04:27:20;1999.90;;;999.90;;
15385;SDS011;7791;47.246;9.648;2022-07-10T04:29:47;1999.90;;;999.90;;
15385;SDS011;7791;47.246;9.648;2022-07-10T04:32:13;1999.90;;;999.90;;
15385;SDS011;7791;47.246;9.648;2022-07-10T04:34:39;1999.90;;;999.90;;
15385;SDS011;7791;47.246;9.648;2022-07-10T04:37:05;1999.90;;;999.90;;
15385;SDS011;7791;47.246;9.648;2022-07-10T04:39:31;1999.90;;;999.90;;
15385;SDS011;7791;47.246;9.648;2022-07-10T04:41:57;1999.90;;;999.90;;
15385;SDS011;7791;47.246;9.648;2022-07-10T04:44:23;1999.90;;;999.90;;
15385;SDS011;7791;47.246;9.648;2022-07-10T04:46:50;1999.90;;;999.90;;
15385;SDS011;7791;47.246;9.648;2022-07-10T04:49:16;1999.90;;;999.90;;
15385;SDS011;7791;47.246;9.648;2022-07-10T04:51:41;1999.90;;;999.90;;
15385;SDS011;7791;47.246;9.648;2022-07-10T04:54:07;1999.90;;;999.90;;
15385;SDS011;7791;47.246;9.648;2022-07-10T04:56:45;1999.90;;;999.90;;
15385;SDS011;7791;47.246;9.648;2022-07-10T04:59:11;1999.90;;;999.90;;
15385;SDS011;7791;47.246;9.648;2022-07-10T05:01:36;1999.90;;;999.90;;
15385;SDS011;7791;47.246;9.648;2022-07-10T05:04:04;1999.90;;;999.90;;
15385;SDS011;7791;47.246;9.648;2022-07-10T05:06:29;1999.90;;;999.90;;
15385;SDS011;7791;47.246;9.648;2022-07-10T05:08:55;1999.90;;;999.90;;
15385;SDS011;7791;47.246;9.648;2022-07-10T05:11:24;1999.90;;;999.90;;
15385;SDS011;7791;47.246;9.648;2022-07-10T05:13:50;1999.90;;;999.90;;
15385;SDS011;7791;47.246;9.648;2022-07-10T05:16:16;1999.90;;;999.90;;
15385;SDS011;7791;47.246;9.648;2022-07-10T05:18:42;1999.90;;;999.90;;
15385;SDS011;7791;47.246;9.648;2022-07-10T05:21:11;1999.90;;;999.90;;
15385;SDS011;7791;47.246;9.648;2022-07-10T05:23:37;1999.90;;;999.90;;
15385;SDS011;7791;47.246;9.648;2022-07-10T05:26:04;1999.90;;;999.90;;
15385;SDS011;7791;47.246;9.648;2022-07-10T05:28:30;1999.90;;;999.90;;
15385;SDS011;7791;47.246;9.648;2022-07-10T05:30:55;1999.90;;;999.90;;
15385;SDS011;7791;47.246;9.648;2022-07-10T05:33:21;1999.90;;;999.90;;
15385;SDS011;7791;47.246;9.648;2022-07-10T05:35:47;1999.90;;;999.90;;
15385;SDS011;7791;47.246;9.648;2022-07-10T05:38:14;1999.90;;;999.90;;
15385;SDS011;7791;47.246;9.648;2022-07-10T05:40:40;1999.90;;;999.90;;
15385;SDS011;7791;47.246;9.648;2022-07-10T05:43:06;1999.90;;;999.90;;
15385;SDS011;7791;47.246;9.648;2022-07-10T05:45:32;1999.90;;;999.90;;
15385;SDS011;7791;47.246;9.648;2022-07-10T05:47:58;1999.90;;;999.90;;
15385;SDS011;7791;47.246;9.648;2022-07-10T05:50:23;1999.90;;;999.90;;
15385;SDS011;7791;47.246;9.648;2022-07-10T05:52:49;1999.90;;;999.90;;
15385;SDS011;7791;47.246;9.648;2022-07-10T05:55:16;1999.90;;;999.90;;
15385;SDS011;7791;47.246;9.648;2022-07-10T05:57:42;1999.90;;;999.90;;
15385;SDS011;7791;47.246;9.648;2022-07-10T06:00:08;1999.90;;;999.90;;
15385;SDS011;7791;47.246;9.648;2022-07-10T06:02:34;1999.90;;;999.90;;
15385;SDS011;7791;47.246;9.648;2022-07-10T06:05:00;1999.90;;;999.90;;
15385;SDS011;7791;47.246;9.648;2022-07-10T06:07:26;1999.90;;;999.90;;
15385;SDS011;7791;47.246;9.648;2022-07-10T06:09:52;1999.90;;;999.90;;
15385;SDS011;7791;47.246;9.648;2022-07-10T06:12:19;1999.90;;;999.90;;
15385;SDS011;7791;47.246;9.648;2022-07-10T06:14:45;1999.90;;;999.90;;
15385;SDS011;7791;47.246;9.648;2022-07-10T06:17:11;1999.90;;;999.90;;
15385;SDS011;7791;47.246;9.648;2022-07-10T06:19:36;1999.90;;;999.90;;
15385;SDS011;7791;47.246;9.648;2022-07-10T06:22:02;1999.90;;;999.90;;
15385;SDS011;7791;47.246;9.648;2022-07-10T06:24:28;1999.90;;;999.90;;
15385;SDS011;7791;47.246;9.648;2022-07-10T06:27:10;1999.90;;;999.90;;
15385;SDS011;7791;47.246;9.648;2022-07-10T06:29:37;1999.90;;;999.90;;
15385;SDS011;7791;47.246;9.648;2022-07-10T06:32:03;1999.90;;;999.90;;
15385;SDS011;7791;47.246;9.648;2022-07-10T06:34:29;1999.90;;;999.90;;
15385;SDS011;7791;47.246;9.648;2022-07-10T06:36:55;1999.90;;;999.90;;
15385;SDS011;7791;47.246;9.648;2022-07-10T06:39:21;1999.90;;;999.90;;
15385;SDS011;7791;47.246;9.648;2022-07-10T06:41:46;1999.90;;;999.90;;
15385;SDS011;7791;47.246;9.648;2022-07-10T06:44:12;1999.90;;;999.90;;
15385;SDS011;7791;47.246;9.648;2022-07-10T06:46:39;1999.90;;;999.90;;
15385;SDS011;7791;47.246;9.648;2022-07-10T06:49:05;1999.90;;;999.90;;
15385;SDS011;7791;47.246;9.648;2022-07-10T06:51:31;1999.90;;;999.90;;
15385;SDS011;7791;47.246;9.648;2022-07-10T06:53:58;1999.90;;;999.90;;
15385;SDS011;7791;47.246;9.648;2022-07-10T06:56:28;1999.90;;;999.90;;
15385;SDS011;7791;47.246;9.648;2022-07-10T06:58:54;1999.90;;;999.90;;
15385;SDS011;7791;47.246;9.648;2022-07-10T07:01:20;1999.90;;;999.90;;
15385;SDS011;7791;47.246;9.648;2022-07-10T07:03:47;1999.90;;;999.90;;
15385;SDS011;7791;47.246;9.648;2022-07-10T07:06:12;1999.90;;;999.90;;
15385;SDS011;7791;47.246;9.648;2022-07-10T07:08:38;1999.90;;;999.90;;
15385;SDS011;7791;47.246;9.648;2022-07-10T07:11:04;1999.90;;;999.90;;
15385;SDS011;7791;47.246;9.648;2022-07-10T07:13:30;1999.90;;;999.90;;
15385;SDS011;7791;47.246;9.648;2022-07-10T07:15:55;1999.90;;;999.90;;
15385;SDS011;7791;47.246;9.648;2022-07-10T07:18:21;1999.90;;;999.90;;
15385;SDS011;7791;47.246;9.648;2022-07-10T07:20:48;1999.90;;;999.90;;
15385;SDS011;7791;47.246;9.648;2022-07-10T07:23:14;1999.90;;;999.90;;
15385;SDS011;7791;47.246;9.648;2022-07-10T07:25:40;1999.90;;;999.90;;
15385;SDS011;7791;47.246;9.648;2022-07-10T07:28:09;1999.90;;;999.90;;
15385;SDS011;7791;47.246;9.648;2022-07-10T07:30:35;1999.90;;;999.90;;
15385;SDS011;7791;47.246;9.648;2022-07-10T07:33:00;1999.90;;;999.90;;
15385;SDS011;7791;47.246;9.648;2022-07-10T07:35:26;1999.90;;;999.90;;
15385;SDS011;7791;47.246;9.648;2022-07-10T07:37:53;1999.90;;;999.90;;
15385;SDS011;7791;47.246;9.648;2022-07-10T07:40:20;1999.90;;;999.90;;
15385;SDS011;7791;47.246;9.648;2022-07-10T07:42:46;115.20;;;77.40;;
15385;SDS011;7791;47.246;9.648;2022-07-10T07:45:12;4.27;;;2.40;;
15385;SDS011;7791;47.246;9.648;2022-07-10T07:47:44;7.93;;;2.70;;
15385;SDS011;7791;47.246;9.648;2022-07-10T07:50:12;4.67;;;3.33;;
15385;SDS011;7791;47.246;9.648;2022-07-10T07:52:38;6.10;;;3.20;;
15385;SDS011;7791;47.246;9.648;2022-07-10T07:55:08;5.33;;;3.50;;
15385;SDS011;7791;47.246;9.648;2022-07-10T07:57:34;4.43;;;3.53;;
15385;SDS011;7791;47.246;9.648;2022-07-10T08:00:00;3.60;;;3.20;;
15385;SDS011;7791;47.246;9.648;2022-07-10T08:02:26;4.43;;;3.20;;
15385;SDS011;7791;47.246;9.648;2022-07-10T08:04:51;3.63;;;2.53;;
15385;SDS011;7791;47.246;9.648;2022-07-10T08:07:17;2.80;;;2.27;;
15385;SDS011;7791;47.246;9.648;2022-07-10T08:09:43;3.93;;;2.43;;
15385;SDS011;7791;47.246;9.648;2022-07-10T08:12:10;5.13;;;3.70;;
15385;SDS011;7791;47.246;9.648;2022-07-10T08:14:36;4.67;;;3.50;;
15385;SDS011;7791;47.246;9.648;2022-07-10T08:17:02;7.93;;;3.67;;
15385;SDS011;7791;47.246;9.648;2022-07-10T08:19:28;4.97;;;3.00;;
15385;SDS011;7791;47.246;9.648;2022-07-10T08:21:53;4.80;;;3.07;;
15385;SDS011;7791;47.246;9.648;2022-07-10T08:24:19;3.60;;;1.57;;
15385;SDS011;7791;47.246;9.648;2022-07-10T08:26:45;9.27;;;2.63;;
15385;SDS011;7791;47.246;9.648;2022-07-10T08:29:12;83.30;;;24.70;;
15385;SDS011;7791;47.246;9.648;2022-07-10T08:31:38;3.43;;;2.90;;
15385;SDS011;7791;47.246;9.648;2022-07-10T08:34:04;3.80;;;3.00;;
15385;SDS011;7791;47.246;9.648;2022-07-10T08:36:29;4.87;;;2.63;;
15385;SDS011;7791;47.246;9.648;2022-07-10T08:38:55;4.43;;;3.27;;
15385;SDS011;7791;47.246;9.648;2022-07-10T08:41:21;3.73;;;2.80;;
15385;SDS011;7791;47.246;9.648;2022-07-10T08:43:49;4.00;;;2.67;;
15385;SDS011;7791;47.246;9.648;2022-07-10T08:46:17;4.93;;;2.80;;
15385;SDS011;7791;47.246;9.648;2022-07-10T08:48:43;6.03;;;3.00;;
15385;SDS011;7791;47.246;9.648;2022-07-10T08:51:14;3.50;;;2.80;;
15385;SDS011;7791;47.246;9.648;2022-07-10T08:53:45;3.43;;;3.00;;
15385;SDS011;7791;47.246;9.648;2022-07-10T08:56:12;5.83;;;2.97;;
15385;SDS011;7791;47.246;9.648;2022-07-10T08:58:38;5.67;;;3.10;;
15385;SDS011;7791;47.246;9.648;2022-07-10T09:01:04;5.17;;;3.00;;
15385;SDS011;7791;47.246;9.648;2022-07-10T09:03:31;6.60;;;3.30;;
15385;SDS011;7791;47.246;9.648;2022-07-10T09:05:57;3.83;;;2.80;;
15385;SDS011;7791;47.246;9.648;2022-07-10T09:08:23;6.85;;;3.50;;
15385;SDS011;7791;47.246;9.648;2022-07-10T09:10:49;3.75;;;2.95;;
15385;SDS011;7791;47.246;9.648;2022-07-10T09:13:15;4.17;;;2.90;;
15385;SDS011;7791;47.246;9.648;2022-07-10T09:15:47;4.30;;;3.25;;
15385;SDS011;7791;47.246;9.648;2022-07-10T09:18:13;3.47;;;3.03;;
15385;SDS011;7791;47.246;9.648;2022-07-10T09:20:46;3.87;;;3.40;;
15385;SDS011;7791;47.246;9.648;2022-07-10T09:23:14;5.37;;;2.80;;
15385;SDS011;7791;47.246;9.648;2022-07-10T09:25:41;4.43;;;3.27;;
15385;SDS011;7791;47.246;9.648;2022-07-10T09:28:07;4.33;;;3.20;;
15385;SDS011;7791;47.246;9.648;2022-07-10T09:30:36;3.63;;;3.00;;
15385;SDS011;7791;47.246;9.648;2022-07-10T09:33:18;6.18;;;3.13;;
15385;SDS011;7791;47.246;9.648;2022-07-10T09:35:56;5.68;;;3.38;;
15385;SDS011;7791;47.246;9.648;2022-07-10T09:38:24;5.32;;;3.20;;
15385;SDS011;7791;47.246;9.648;2022-07-10T09:40:49;3.92;;;2.88;;
15385;SDS011;7791;47.246;9.648;2022-07-10T09:43:15;5.28;;;3.22;;
15385;SDS011;7791;47.246;9.648;2022-07-10T09:45:41;5.18;;;3.15;;
15385;SDS011;7791;47.246;9.648;2022-07-10T09:48:07;4.05;;;3.10;;
15385;SDS011;7791;47.246;9.648;2022-07-10T09:50:48;3.88;;;2.95;;
15385;SDS011;7791;47.246;9.648;2022-07-10T09:53:40;3.95;;;2.70;;
15385;SDS011;7791;47.246;9.648;2022-07-10T09:56:21;3.33;;;2.80;;
15385;SDS011;7791;47.246;9.648;2022-07-10T09:58:55;3.45;;;3.03;;
15385;SDS011;7791;47.246;9.648;2022-07-10T10:01:52;5.13;;;3.58;;
15385;SDS011;7791;47.246;9.648;2022-07-10T10:04:24;5.13;;;3.50;;
15385;SDS011;7791;47.246;9.648;2022-07-10T10:06:56;3.83;;;3.10;;
15385;SDS011;7791;47.246;9.648;2022-07-10T10:09:28;13.00;;;3.60;;
15385;SDS011;7791;47.246;9.648;2022-07-10T10:15:00;7.53;;;3.13;;
15385;SDS011;7791;47.246;9.648;2022-07-10T10:17:29;3.65;;;3.35;;
15385;SDS011;7791;47.246;9.648;2022-07-10T10:19:58;3.58;;;3.10;;
15385;SDS011;7791;47.246;9.648;2022-07-10T10:22:31;4.32;;;3.40;;
15385;SDS011;7791;47.246;9.648;2022-07-10T10:25:07;4.38;;;2.80;;
15385;SDS011;7791;47.246;9.648;2022-07-10T10:27:51;4.30;;;3.00;;
15385;SDS011;7791;47.246;9.648;2022-07-10T10:30:20;5.10;;;3.30;;
15385;SDS011;7791;47.246;9.648;2022-07-10T10:32:55;3.60;;;3.08;;
15385;SDS011;7791;47.246;9.648;2022-07-10T10:38:16;3.38;;;2.83;;
15385;SDS011;7791;47.246;9.648;2022-07-10T10:41:30;5.63;;;3.58;;
15385;SDS011;7791;47.246;9.648;2022-07-10T10:44:26;3.78;;;3.45;;
15385;SDS011;7791;47.246;9.648;2022-07-10T10:49:49;5.78;;;3.17;;
15385;SDS011;7791;47.246;9.648;2022-07-10T10:52:26;3.30;;;3.00;;
15385;SDS011;7791;47.246;9.648;2022-07-10T10:55:00;3.65;;;3.13;;
15385;SDS011;7791;47.246;9.648;2022-07-10T10:57:48;4.35;;;2.67;;
15385;SDS011;7791;47.246;9.648;2022-07-10T11:00:15;3.60;;;2.60;;
15385;SDS011;7791;47.246;9.648;2022-07-10T11:03:20;6.80;;;3.17;;
15385;SDS011;7791;47.246;9.648;2022-07-10T11:05:53;3.58;;;2.53;;
15385;SDS011;7791;47.246;9.648;2022-07-10T11:08:52;3.47;;;2.80;;
15385;SDS011;7791;47.246;9.648;2022-07-10T11:14:09;3.35;;;3.00;;
15385;SDS011;7791;47.246;9.648;2022-07-10T11:16:46;3.72;;;2.90;;
15385;SDS011;7791;47.246;9.648;2022-07-10T11:19:23;4.78;;;2.90;;
15385;SDS011;7791;47.246;9.648;2022-07-10T11:21:59;4.60;;;3.20;;
15385;SDS011;7791;47.246;9.648;2022-07-10T11:25:00;4.63;;;2.70;;
15385;SDS011;7791;47.246;9.648;2022-07-10T11:27:53;3.80;;;2.80;;
15385;SDS011;7791;47.246;9.648;2022-07-10T11:33:17;2.40;;;2.20;;
15385;SDS011;7791;47.246;9.648;2022-07-10T11:35:44;4.18;;;2.70;;
15385;SDS011;7791;47.246;9.648;2022-07-10T11:38:24;2.92;;;2.50;;
15385;SDS011;7791;47.246;9.648;2022-07-10T11:40:55;3.38;;;2.63;;
15385;SDS011;7791;47.246;9.648;2022-07-10T11:43:21;3.80;;;2.40;;
15385;SDS011;7791;47.246;9.648;2022-07-10T11:45:49;3.03;;;2.50;;
15385;SDS011;7791;47.246;9.648;2022-07-10T11:48:20;5.00;;;2.63;;
15385;SDS011;7791;47.246;9.648;2022-07-10T11:50:46;4.97;;;2.65;;
15385;SDS011;7791;47.246;9.648;2022-07-10T11:53:21;2.88;;;2.30;;
15385;SDS011;7791;47.246;9.648;2022-07-10T11:55:47;3.05;;;2.33;;
15385;SDS011;7791;47.246;9.648;2022-07-10T11:58:16;2.60;;;2.38;;
15385;SDS011;7791;47.246;9.648;2022-07-10T12:00:42;3.85;;;2.15;;
15385;SDS011;7791;47.246;9.648;2022-07-10T12:03:19;2.58;;;2.30;;
15385;SDS011;7791;47.246;9.648;2022-07-10T12:05:45;3.63;;;2.70;;
15385;SDS011;7791;47.246;9.648;2022-07-10T12:08:12;5.63;;;2.20;;
15385;SDS011;7791;47.246;9.648;2022-07-10T12:10:38;5.57;;;2.28;;
15385;SDS011;7791;47.246;9.648;2022-07-10T12:13:05;3.10;;;2.42;;
15385;SDS011;7791;47.246;9.648;2022-07-10T12:15:32;2.85;;;2.22;;
15385;SDS011;7791;47.246;9.648;2022-07-10T12:18:02;2.45;;;2.25;;
15385;SDS011;7791;47.246;9.648;2022-07-10T12:20:29;2.30;;;2.10;;
15385;SDS011;7791;47.246;9.648;2022-07-10T12:22:56;2.53;;;2.33;;
15385;SDS011;7791;47.246;9.648;2022-07-10T12:25:22;2.38;;;2.17;;
15385;SDS011;7791;47.246;9.648;2022-07-10T12:27:49;2.63;;;2.20;;
15385;SDS011;7791;47.246;9.648;2022-07-10T12:30:19;3.30;;;2.40;;
15385;SDS011;7791;47.246;9.648;2022-07-10T12:32:45;3.05;;;2.40;;
15385;SDS011;7791;47.246;9.648;2022-07-10T12:35:11;3.05;;;2.10;;
15385;SDS011;7791;47.246;9.648;2022-07-10T12:37:38;3.30;;;2.00;;
15385;SDS011;7791;47.246;9.648;2022-07-10T12:40:13;4.25;;;2.35;;
15385;SDS011;7791;47.246;9.648;2022-07-10T12:43:00;2.50;;;2.10;;
15385;SDS011;7791;47.246;9.648;2022-07-10T12:45:26;2.90;;;2.10;;
15385;SDS011;7791;47.246;9.648;2022-07-10T12:47:52;2.85;;;1.77;;
15385;SDS011;7791;47.246;9.648;2022-07-10T12:50:18;5.07;;;2.00;;
15385;SDS011;7791;47.246;9.648;2022-07-10T12:52:45;3.03;;;2.10;;
15385;SDS011;7791;47.246;9.648;2022-07-10T12:55:12;2.20;;;1.88;;
15385;SDS011;7791;47.246;9.648;2022-07-10T12:57:49;3.22;;;2.00;;
15385;SDS011;7791;47.246;9.648;2022-07-10T13:00:16;2.30;;;1.98;;
15385;SDS011;7791;47.246;9.648;2022-07-10T13:02:43;4.25;;;2.15;;
15385;SDS011;7791;47.246;9.648;2022-07-10T13:05:09;3.63;;;1.92;;
15385;SDS011;7791;47.246;9.648;2022-07-10T13:07:35;3.97;;;1.88;;
15385;SDS011;7791;47.246;9.648;2022-07-10T13:10:04;3.33;;;2.35;;
15385;SDS011;7791;47.246;9.648;2022-07-10T13:12:31;5.45;;;2.10;;
15385;SDS011;7791;47.246;9.648;2022-07-10T13:14:58;2.55;;;1.80;;
15385;SDS011;7791;47.246;9.648;2022-07-10T13:17:29;2.63;;;2.10;;
15385;SDS011;7791;47.246;9.648;2022-07-10T13:19:55;1.90;;;1.80;;
15385;SDS011;7791;47.246;9.648;2022-07-10T13:22:20;3.72;;;2.03;;
15385;SDS011;7791;47.246;9.648;2022-07-10T13:24:46;2.80;;;1.92;;
15385;SDS011;7791;47.246;9.648;2022-07-10T13:27:13;2.28;;;1.80;;
15385;SDS011;7791;47.246;9.648;2022-07-10T13:29:39;4.00;;;2.10;;
15385;SDS011;7791;47.246;9.648;2022-07-10T13:32:06;3.13;;;1.83;;
15385;SDS011;7791;47.246;9.648;2022-07-10T13:34:33;3.00;;;1.70;;
15385;SDS011;7791;47.246;9.648;2022-07-10T13:36:59;2.80;;;1.90;;
15385;SDS011;7791;47.246;9.648;2022-07-10T13:39:26;2.67;;;1.88;;
15385;SDS011;7791;47.246;9.648;2022-07-10T13:41:51;4.60;;;2.00;;
15385;SDS011;7791;47.246;9.648;2022-07-10T13:44:21;4.97;;;2.30;;
15385;SDS011;7791;47.246;9.648;2022-07-10T13:46:50;2.38;;;1.77;;
15385;SDS011;7791;47.246;9.648;2022-07-10T13:49:26;2.47;;;2.20;;
15385;SDS011;7791;47.246;9.648;2022-07-10T13:51:58;4.65;;;2.25;;
15385;SDS011;7791;47.246;9.648;2022-07-10T13:54:24;2.47;;;2.10;;
15385;SDS011;7791;47.246;9.648;2022-07-10T13:56:52;3.40;;;2.00;;
15385;SDS011;7791;47.246;9.648;2022-07-10T13:59:18;3.53;;;2.05;;
15385;SDS011;7791;47.246;9.648;2022-07-10T14:01:51;2.75;;;1.83;;
15385;SDS011;7791;47.246;9.648;2022-07-10T14:04:41;4.03;;;2.22;;
15385;SDS011;7791;47.246;9.648;2022-07-10T14:07:10;3.40;;;1.80;;
15385;SDS011;7791;47.246;9.648;2022-07-10T14:09:38;2.03;;;1.70;;
15385;SDS011;7791;47.246;9.648;2022-07-10T14:12:10;1.92;;;1.77;;
15385;SDS011;7791;47.246;9.648;2022-07-10T14:14:47;2.35;;;1.77;;
15385;SDS011;7791;47.246;9.648;2022-07-10T14:17:16;2.50;;;1.90;;
15385;SDS011;7791;47.246;9.648;2022-07-10T14:19:46;2.00;;;1.65;;
15385;SDS011;7791;47.246;9.648;2022-07-10T14:22:13;3.17;;;2.00;;
15385;SDS011;7791;47.246;9.648;2022-07-10T14:24:39;2.55;;;1.85;;
15385;SDS011;7791;47.246;9.648;2022-07-10T14:27:05;2.00;;;1.80;;
15385;SDS011;7791;47.246;9.648;2022-07-10T14:29:34;5.57;;;1.70;;
15385;SDS011;7791;47.246;9.648;2022-07-10T14:32:02;4.35;;;1.60;;
15385;SDS011;7791;47.246;9.648;2022-07-10T14:34:34;4.00;;;1.63;;
15385;SDS011;7791;47.246;9.648;2022-07-10T14:37:10;2.28;;;1.80;;
15385;SDS011;7791;47.246;9.648;2022-07-10T14:39:41;3.03;;;1.60;;
15385;SDS011;7791;47.246;9.648;2022-07-10T14:42:07;4.50;;;1.75;;
15385;SDS011;7791;47.246;9.648;2022-07-10T14:44:36;2.10;;;1.80;;
15385;SDS011;7791;47.246;9.648;2022-07-10T14:47:02;1.98;;;1.55;;
15385;SDS011;7791;47.246;9.648;2022-07-10T14:49:37;2.97;;;1.80;;
15385;SDS011;7791;47.246;9.648;2022-07-10T14:52:06;2.28;;;1.75;;
15385;SDS011;7791;47.246;9.648;2022-07-10T14:54:35;3.05;;;1.70;;
15385;SDS011;7791;47.246;9.648;2022-07-10T14:57:00;3.20;;;1.90;;
15385;SDS011;7791;47.246;9.648;2022-07-10T14:59:27;2.28;;;1.67;;
15385;SDS011;7791;47.246;9.648;2022-07-10T15:01:53;4.20;;;2.13;;
15385;SDS011;7791;47.246;9.648;2022-07-10T15:04:19;1.73;;;1.63;;